sensor_id;sensor_type;location;lat;lon;timestamp;P1;durP1;ratioP1;P2;durP2;ratioP2
3971;SDS011;2000;47.572;14.202;2023-07-22T00:00:39;7.83;;;2.47;;
3971;SDS011;2000;47.572;14.202;2023-07-22T00:03:06;3.93;;;2.40;;
3971;SDS011;2000;47.572;14.202;2023-07-22T00:05:33;4.57;;;2.20;;
3971;SDS011;2000;47.572;14.202;2023-07-22T00:08:00;3.00;;;2.20;;
3971;SDS011;2000;47.572;14.202;2023-07-22T00:10:27;5.30;;;2.43;;
3971;SDS011;2000;47.572;14.202;2023-07-22T00:12:53;16.73;;;3.07;;
3971;SDS011;2000;47.572;14.202;2023-07-22T00:15:20;3.00;;;1.90;;
3971;SDS011;2000;47.572;14.202;2023-07-22T00:17:50;3.40;;;1.70;;
3971;SDS011;2000;47.572;14.202;2023-07-22T00:20:18;2.87;;;2.10;;
3971;SDS011;2000;47.572;14.202;2023-07-22T00:22:46;2.83;;;2.03;;
3971;SDS011;2000;47.572;14.202;2023-07-22T00:25:13;2.70;;;1.90;;
3971;SDS011;2000;47.572;14.202;2023-07-22T00:27:41;2.83;;;2.37;;
3971;SDS011;2000;47.572;14.202;2023-07-22T00:30:08;6.13;;;2.67;;
3971;SDS011;2000;47.572;14.202;2023-07-22T00:32:35;5.57;;;3.53;;
3971;SDS011;2000;47.572;14.202;2023-07-22T00:35:04;3.90;;;2.30;;
3971;SDS011;2000;47.572;14.202;2023-07-22T00:37:36;4.00;;;2.50;;
3971;SDS011;2000;47.572;14.202;2023-07-22T00:40:03;4.70;;;2.73;;
3971;SDS011;2000;47.572;14.202;2023-07-22T00:42:38;4.97;;;2.10;;
3971;SDS011;2000;47.572;14.202;2023-07-22T00:45:06;3.43;;;2.30;;
3971;SDS011;2000;47.572;14.202;2023-07-22T00:47:34;3.47;;;2.37;;
3971;SDS011;2000;47.572;14.202;2023-07-22T00:50:02;4.20;;;2.20;;
3971;SDS011;2000;47.572;14.202;2023-07-22T00:52:30;4.70;;;2.10;;
3971;SDS011;2000;47.572;14.202;2023-07-22T00:54:56;2.20;;;1.73;;
3971;SDS011;2000;47.572;14.202;2023-07-22T00:57:24;2.40;;;2.03;;
3971;SDS011;2000;47.572;14.202;2023-07-22T00:59:51;4.67;;;2.70;;
3971;SDS011;2000;47.572;14.202;2023-07-22T01:02:18;6.07;;;1.50;;
3971;SDS011;2000;47.572;14.202;2023-07-22T01:04:45;5.03;;;2.17;;
3971;SDS011;2000;47.572;14.202;2023-07-22T01:07:12;5.33;;;2.83;;
3971;SDS011;2000;47.572;14.202;2023-07-22T01:09:40;4.47;;;2.00;;
3971;SDS011;2000;47.572;14.202;2023-07-22T01:12:07;4.40;;;1.90;;
3971;SDS011;2000;47.572;14.202;2023-07-22T01:14:35;4.83;;;2.63;;
3971;SDS011;2000;47.572;14.202;2023-07-22T01:17:03;4.97;;;2.10;;
3971;SDS011;2000;47.572;14.202;2023-07-22T01:19:34;3.50;;;2.73;;
3971;SDS011;2000;47.572;14.202;2023-07-22T01:22:02;4.53;;;2.40;;
3971;SDS011;2000;47.572;14.202;2023-07-22T01:24:30;6.63;;;3.30;;
3971;SDS011;2000;47.572;14.202;2023-07-22T01:26:57;4.97;;;2.67;;
3971;SDS011;2000;47.572;14.202;2023-07-22T01:29:24;3.97;;;2.97;;
3971;SDS011;2000;47.572;14.202;2023-07-22T01:31:53;2.37;;;1.97;;
3971;SDS011;2000;47.572;14.202;2023-07-22T01:34:21;6.47;;;2.00;;
3971;SDS011;2000;47.572;14.202;2023-07-22T01:36:48;3.60;;;2.30;;
3971;SDS011;2000;47.572;14.202;2023-07-22T01:39:15;3.37;;;2.60;;
3971;SDS011;2000;47.572;14.202;2023-07-22T01:41:42;5.63;;;2.60;;
3971;SDS011;2000;47.572;14.202;2023-07-22T01:44:09;3.80;;;2.30;;
3971;SDS011;2000;47.572;14.202;2023-07-22T01:46:37;3.70;;;1.23;;
3971;SDS011;2000;47.572;14.202;2023-07-22T01:49:05;3.33;;;2.30;;
3971;SDS011;2000;47.572;14.202;2023-07-22T01:51:36;3.60;;;1.87;;
3971;SDS011;2000;47.572;14.202;2023-07-22T01:54:12;9.17;;;2.03;;
3971;SDS011;2000;47.572;14.202;2023-07-22T01:56:39;2.20;;;1.97;;
3971;SDS011;2000;47.572;14.202;2023-07-22T01:59:06;4.30;;;2.17;;
3971;SDS011;2000;47.572;14.202;2023-07-22T02:01:32;3.70;;;2.07;;
3971;SDS011;2000;47.572;14.202;2023-07-22T02:03:59;6.53;;;2.23;;
3971;SDS011;2000;47.572;14.202;2023-07-22T02:06:26;5.50;;;2.40;;
3971;SDS011;2000;47.572;14.202;2023-07-22T02:08:56;12.83;;;2.50;;
3971;SDS011;2000;47.572;14.202;2023-07-22T02:11:23;4.10;;;3.00;;
3971;SDS011;2000;47.572;14.202;2023-07-22T02:13:49;2.37;;;2.00;;
3971;SDS011;2000;47.572;14.202;2023-07-22T02:16:16;13.60;;;2.80;;
3971;SDS011;2000;47.572;14.202;2023-07-22T02:18:43;3.30;;;2.40;;
3971;SDS011;2000;47.572;14.202;2023-07-22T02:21:10;2.93;;;2.50;;
3971;SDS011;2000;47.572;14.202;2023-07-22T02:23:37;3.03;;;2.33;;
3971;SDS011;2000;47.572;14.202;2023-07-22T02:26:04;3.93;;;2.20;;
3971;SDS011;2000;47.572;14.202;2023-07-22T02:28:31;5.67;;;2.37;;
3971;SDS011;2000;47.572;14.202;2023-07-22T02:30:59;6.57;;;2.33;;
3971;SDS011;2000;47.572;14.202;2023-07-22T02:33:28;6.47;;;2.93;;
3971;SDS011;2000;47.572;14.202;2023-07-22T02:35:55;4.10;;;2.53;;
3971;SDS011;2000;47.572;14.202;2023-07-22T02:38:22;4.80;;;2.60;;
3971;SDS011;2000;47.572;14.202;2023-07-22T02:40:49;7.47;;;2.57;;
3971;SDS011;2000;47.572;14.202;2023-07-22T02:43:15;11.93;;;3.57;;
3971;SDS011;2000;47.572;14.202;2023-07-22T02:45:42;7.73;;;2.43;;
3971;SDS011;2000;47.572;14.202;2023-07-22T02:48:09;7.50;;;2.70;;
3971;SDS011;2000;47.572;14.202;2023-07-22T02:50:36;3.00;;;2.30;;
3971;SDS011;2000;47.572;14.202;2023-07-22T02:53:03;8.30;;;2.53;;
3971;SDS011;2000;47.572;14.202;2023-07-22T02:55:30;2.37;;;2.10;;
3971;SDS011;2000;47.572;14.202;2023-07-22T02:57:57;2.10;;;1.90;;
3971;SDS011;2000;47.572;14.202;2023-07-22T03:00:23;3.23;;;2.30;;
3971;SDS011;2000;47.572;14.202;2023-07-22T03:02:54;3.87;;;2.57;;
3971;SDS011;2000;47.572;14.202;2023-07-22T03:05:28;5.23;;;2.50;;
3971;SDS011;2000;47.572;14.202;2023-07-22T03:07:55;5.13;;;2.90;;
3971;SDS011;2000;47.572;14.202;2023-07-22T03:10:23;6.67;;;2.57;;
3971;SDS011;2000;47.572;14.202;2023-07-22T03:12:52;4.23;;;2.80;;
3971;SDS011;2000;47.572;14.202;2023-07-22T03:15:22;2.73;;;2.00;;
3971;SDS011;2000;47.572;14.202;2023-07-22T03:17:49;3.27;;;1.97;;
3971;SDS011;2000;47.572;14.202;2023-07-22T03:20:16;3.07;;;2.33;;
3971;SDS011;2000;47.572;14.202;2023-07-22T03:22:45;3.30;;;2.10;;
3971;SDS011;2000;47.572;14.202;2023-07-22T03:25:13;7.53;;;2.10;;
3971;SDS011;2000;47.572;14.202;2023-07-22T03:27:40;9.23;;;2.30;;
3971;SDS011;2000;47.572;14.202;2023-07-22T03:30:07;6.63;;;2.73;;
3971;SDS011;2000;47.572;14.202;2023-07-22T03:32:36;7.10;;;2.40;;
3971;SDS011;2000;47.572;14.202;2023-07-22T03:35:03;7.47;;;2.30;;
3971;SDS011;2000;47.572;14.202;2023-07-22T03:37:30;2.20;;;2.00;;
3971;SDS011;2000;47.572;14.202;2023-07-22T03:39:58;11.23;;;2.27;;
3971;SDS011;2000;47.572;14.202;2023-07-22T03:42:24;3.00;;;2.20;;
3971;SDS011;2000;47.572;14.202;2023-07-22T03:44:51;3.63;;;2.00;;
3971;SDS011;2000;47.572;14.202;2023-07-22T03:47:19;3.23;;;2.10;;
3971;SDS011;2000;47.572;14.202;2023-07-22T03:49:46;4.57;;;2.77;;
3971;SDS011;2000;47.572;14.202;2023-07-22T03:52:12;2.90;;;1.97;;
3971;SDS011;2000;47.572;14.202;2023-07-22T03:54:40;2.90;;;2.20;;
3971;SDS011;2000;47.572;14.202;2023-07-22T03:57:07;2.80;;;1.63;;
3971;SDS011;2000;47.572;14.202;2023-07-22T03:59:34;4.50;;;2.33;;
3971;SDS011;2000;47.572;14.202;2023-07-22T04:02:01;18.40;;;2.73;;
3971;SDS011;2000;47.572;14.202;2023-07-22T04:04:28;3.80;;;2.57;;
3971;SDS011;2000;47.572;14.202;2023-07-22T04:06:55;2.50;;;2.30;;
3971;SDS011;2000;47.572;14.202;2023-07-22T04:09:22;6.60;;;2.30;;
3971;SDS011;2000;47.572;14.202;2023-07-22T04:11:49;3.70;;;2.10;;
3971;SDS011;2000;47.572;14.202;2023-07-22T04:14:15;5.97;;;2.33;;
3971;SDS011;2000;47.572;14.202;2023-07-22T04:16:42;3.40;;;2.97;;
3971;SDS011;2000;47.572;14.202;2023-07-22T04:19:09;4.90;;;2.60;;
3971;SDS011;2000;47.572;14.202;2023-07-22T04:21:36;5.03;;;3.03;;
3971;SDS011;2000;47.572;14.202;2023-07-22T04:24:03;3.00;;;2.10;;
3971;SDS011;2000;47.572;14.202;2023-07-22T04:26:30;3.10;;;2.80;;
3971;SDS011;2000;47.572;14.202;2023-07-22T04:28:57;4.53;;;2.40;;
3971;SDS011;2000;47.572;14.202;2023-07-22T04:31:23;3.07;;;2.57;;
3971;SDS011;2000;47.572;14.202;2023-07-22T04:33:50;5.47;;;2.83;;
3971;SDS011;2000;47.572;14.202;2023-07-22T04:36:17;2.87;;;2.27;;
3971;SDS011;2000;47.572;14.202;2023-07-22T04:38:44;4.77;;;2.90;;
3971;SDS011;2000;47.572;14.202;2023-07-22T04:41:11;13.47;;;3.97;;
3971;SDS011;2000;47.572;14.202;2023-07-22T04:43:38;7.10;;;3.80;;
3971;SDS011;2000;47.572;14.202;2023-07-22T04:46:06;3.30;;;3.00;;
3971;SDS011;2000;47.572;14.202;2023-07-22T04:48:34;8.73;;;3.90;;
3971;SDS011;2000;47.572;14.202;2023-07-22T04:51:01;6.33;;;3.63;;
3971;SDS011;2000;47.572;14.202;2023-07-22T04:53:28;4.93;;;3.97;;
3971;SDS011;2000;47.572;14.202;2023-07-22T04:55:54;4.83;;;4.10;;
3971;SDS011;2000;47.572;14.202;2023-07-22T04:58:21;3.30;;;2.60;;
3971;SDS011;2000;47.572;14.202;2023-07-22T05:00:48;8.80;;;4.50;;
3971;SDS011;2000;47.572;14.202;2023-07-22T05:03:15;10.63;;;4.70;;
3971;SDS011;2000;47.572;14.202;2023-07-22T05:05:42;8.87;;;4.47;;
3971;SDS011;2000;47.572;14.202;2023-07-22T05:08:09;4.50;;;3.13;;
3971;SDS011;2000;47.572;14.202;2023-07-22T05:10:36;5.57;;;3.50;;
3971;SDS011;2000;47.572;14.202;2023-07-22T05:13:04;3.43;;;3.13;;
3971;SDS011;2000;47.572;14.202;2023-07-22T05:15:31;9.13;;;3.33;;
3971;SDS011;2000;47.572;14.202;2023-07-22T05:17:58;4.63;;;3.50;;
3971;SDS011;2000;47.572;14.202;2023-07-22T05:20:24;6.73;;;3.80;;
3971;SDS011;2000;47.572;14.202;2023-07-22T05:22:51;5.27;;;4.17;;
3971;SDS011;2000;47.572;14.202;2023-07-22T05:25:18;6.13;;;3.83;;
3971;SDS011;2000;47.572;14.202;2023-07-22T05:27:45;3.80;;;3.00;;
3971;SDS011;2000;47.572;14.202;2023-07-22T05:30:12;3.30;;;2.77;;
3971;SDS011;2000;47.572;14.202;2023-07-22T05:32:58;9.93;;;3.17;;
3971;SDS011;2000;47.572;14.202;2023-07-22T05:35:25;3.33;;;3.03;;
3971;SDS011;2000;47.572;14.202;2023-07-22T05:37:54;4.00;;;2.07;;
3971;SDS011;2000;47.572;14.202;2023-07-22T05:40:21;4.80;;;3.30;;
3971;SDS011;2000;47.572;14.202;2023-07-22T05:42:48;6.03;;;3.03;;
3971;SDS011;2000;47.572;14.202;2023-07-22T05:45:18;2.20;;;1.97;;
3971;SDS011;2000;47.572;14.202;2023-07-22T05:47:45;3.80;;;2.40;;
3971;SDS011;2000;47.572;14.202;2023-07-22T05:50:12;3.70;;;2.30;;
3971;SDS011;2000;47.572;14.202;2023-07-22T05:52:39;3.57;;;2.60;;
3971;SDS011;2000;47.572;14.202;2023-07-22T05:55:05;6.17;;;2.80;;
3971;SDS011;2000;47.572;14.202;2023-07-22T05:57:33;13.10;;;2.70;;
3971;SDS011;2000;47.572;14.202;2023-07-22T06:00:00;4.20;;;3.80;;
3971;SDS011;2000;47.572;14.202;2023-07-22T06:02:34;5.30;;;2.93;;
3971;SDS011;2000;47.572;14.202;2023-07-22T06:05:02;5.10;;;3.00;;
3971;SDS011;2000;47.572;14.202;2023-07-22T06:07:30;4.33;;;2.60;;
3971;SDS011;2000;47.572;14.202;2023-07-22T06:09:57;5.70;;;4.27;;
3971;SDS011;2000;47.572;14.202;2023-07-22T06:12:24;3.53;;;3.00;;
3971;SDS011;2000;47.572;14.202;2023-07-22T06:14:51;7.33;;;3.10;;
3971;SDS011;2000;47.572;14.202;2023-07-22T06:17:18;6.30;;;3.57;;
3971;SDS011;2000;47.572;14.202;2023-07-22T06:19:46;5.20;;;2.90;;
3971;SDS011;2000;47.572;14.202;2023-07-22T06:22:13;9.83;;;3.20;;
3971;SDS011;2000;47.572;14.202;2023-07-22T06:24:41;9.47;;;3.63;;
3971;SDS011;2000;47.572;14.202;2023-07-22T06:27:08;4.07;;;2.37;;
3971;SDS011;2000;47.572;14.202;2023-07-22T06:29:35;7.00;;;3.23;;
3971;SDS011;2000;47.572;14.202;2023-07-22T06:32:02;4.33;;;3.37;;
3971;SDS011;2000;47.572;14.202;2023-07-22T06:34:29;5.00;;;3.33;;
3971;SDS011;2000;47.572;14.202;2023-07-22T06:36:56;4.60;;;3.00;;
3971;SDS011;2000;47.572;14.202;2023-07-22T06:39:22;6.27;;;3.17;;
3971;SDS011;2000;47.572;14.202;2023-07-22T06:41:49;5.33;;;3.00;;
3971;SDS011;2000;47.572;14.202;2023-07-22T06:44:16;5.43;;;2.63;;
3971;SDS011;2000;47.572;14.202;2023-07-22T06:46:43;3.17;;;2.87;;
3971;SDS011;2000;47.572;14.202;2023-07-22T06:49:11;4.23;;;3.23;;
3971;SDS011;2000;47.572;14.202;2023-07-22T06:51:38;4.00;;;2.40;;
3971;SDS011;2000;47.572;14.202;2023-07-22T06:54:05;5.93;;;2.87;;
3971;SDS011;2000;47.572;14.202;2023-07-22T06:56:32;5.10;;;2.97;;
3971;SDS011;2000;47.572;14.202;2023-07-22T06:58:59;5.23;;;3.07;;
3971;SDS011;2000;47.572;14.202;2023-07-22T07:01:26;4.30;;;2.63;;
3971;SDS011;2000;47.572;14.202;2023-07-22T07:03:53;5.10;;;2.83;;
3971;SDS011;2000;47.572;14.202;2023-07-22T07:06:20;7.50;;;3.23;;
3971;SDS011;2000;47.572;14.202;2023-07-22T07:08:46;3.20;;;2.40;;
3971;SDS011;2000;47.572;14.202;2023-07-22T07:11:15;4.70;;;2.80;;
3971;SDS011;2000;47.572;14.202;2023-07-22T07:13:42;3.13;;;2.83;;
3971;SDS011;2000;47.572;14.202;2023-07-22T07:16:22;3.40;;;2.63;;
3971;SDS011;2000;47.572;14.202;2023-07-22T07:18:53;3.67;;;2.57;;
3971;SDS011;2000;47.572;14.202;2023-07-22T07:21:21;10.63;;;2.60;;
3971;SDS011;2000;47.572;14.202;2023-07-22T07:23:48;4.60;;;3.30;;
3971;SDS011;2000;47.572;14.202;2023-07-22T07:26:15;4.40;;;2.80;;
3971;SDS011;2000;47.572;14.202;2023-07-22T07:28:43;7.37;;;2.70;;
3971;SDS011;2000;47.572;14.202;2023-07-22T07:31:10;6.80;;;3.40;;
3971;SDS011;2000;47.572;14.202;2023-07-22T07:33:37;5.17;;;2.60;;
3971;SDS011;2000;47.572;14.202;2023-07-22T07:36:04;9.20;;;2.50;;
3971;SDS011;2000;47.572;14.202;2023-07-22T07:38:31;7.77;;;3.30;;
3971;SDS011;2000;47.572;14.202;2023-07-22T07:41:07;4.23;;;3.07;;
3971;SDS011;2000;47.572;14.202;2023-07-22T07:43:38;6.10;;;3.07;;
3971;SDS011;2000;47.572;14.202;2023-07-22T07:46:12;5.80;;;2.60;;
3971;SDS011;2000;47.572;14.202;2023-07-22T07:48:45;7.37;;;2.93;;
3971;SDS011;2000;47.572;14.202;2023-07-22T07:51:13;3.37;;;2.53;;
3971;SDS011;2000;47.572;14.202;2023-07-22T07:53:43;3.10;;;2.47;;
3971;SDS011;2000;47.572;14.202;2023-07-22T07:56:11;2.03;;;1.93;;
3971;SDS011;2000;47.572;14.202;2023-07-22T07:58:38;3.37;;;3.07;;
3971;SDS011;2000;47.572;14.202;2023-07-22T08:01:05;4.90;;;3.13;;
3971;SDS011;2000;47.572;14.202;2023-07-22T08:03:33;8.30;;;2.80;;
3971;SDS011;2000;47.572;14.202;2023-07-22T08:06:01;7.07;;;2.90;;
3971;SDS011;2000;47.572;14.202;2023-07-22T08:08:28;3.70;;;2.43;;
3971;SDS011;2000;47.572;14.202;2023-07-22T08:10:59;6.53;;;2.60;;
3971;SDS011;2000;47.572;14.202;2023-07-22T08:13:27;3.20;;;2.57;;
3971;SDS011;2000;47.572;14.202;2023-07-22T08:15:56;3.43;;;2.63;;
3971;SDS011;2000;47.572;14.202;2023-07-22T08:18:24;3.90;;;2.30;;
3971;SDS011;2000;47.572;14.202;2023-07-22T08:20:53;4.13;;;2.20;;
3971;SDS011;2000;47.572;14.202;2023-07-22T08:23:20;2.43;;;2.23;;
3971;SDS011;2000;47.572;14.202;2023-07-22T08:25:47;6.53;;;3.00;;
3971;SDS011;2000;47.572;14.202;2023-07-22T08:28:15;5.33;;;2.90;;
3971;SDS011;2000;47.572;14.202;2023-07-22T08:30:43;3.53;;;2.60;;
3971;SDS011;2000;47.572;14.202;2023-07-22T08:33:11;3.07;;;2.73;;
3971;SDS011;2000;47.572;14.202;2023-07-22T08:35:42;4.30;;;2.80;;
3971;SDS011;2000;47.572;14.202;2023-07-22T08:38:09;2.83;;;2.37;;
3971;SDS011;2000;47.572;14.202;2023-07-22T08:40:36;9.10;;;2.70;;
3971;SDS011;2000;47.572;14.202;2023-07-22T08:43:04;3.20;;;2.50;;
3971;SDS011;2000;47.572;14.202;2023-07-22T08:45:33;4.93;;;2.57;;
3971;SDS011;2000;47.572;14.202;2023-07-22T08:48:04;3.93;;;3.20;;
3971;SDS011;2000;47.572;14.202;2023-07-22T08:50:34;3.33;;;2.57;;
3971;SDS011;2000;47.572;14.202;2023-07-22T08:53:07;4.40;;;2.70;;
3971;SDS011;2000;47.572;14.202;2023-07-22T08:55:34;5.57;;;3.40;;
3971;SDS011;2000;47.572;14.202;2023-07-22T08:58:01;6.00;;;3.23;;
3971;SDS011;2000;47.572;14.202;2023-07-22T09:00:28;2.70;;;2.33;;
3971;SDS011;2000;47.572;14.202;2023-07-22T09:02:56;5.67;;;3.27;;
3971;SDS011;2000;47.572;14.202;2023-07-22T09:05:24;5.83;;;2.80;;
3971;SDS011;2000;47.572;14.202;2023-07-22T09:07:51;2.83;;;2.27;;
3971;SDS011;2000;47.572;14.202;2023-07-22T09:10:18;3.47;;;2.63;;
3971;SDS011;2000;47.572;14.202;2023-07-22T09:12:45;4.83;;;2.73;;
3971;SDS011;2000;47.572;14.202;2023-07-22T09:15:13;5.23;;;2.20;;
3971;SDS011;2000;47.572;14.202;2023-07-22T09:17:41;4.73;;;3.30;;
3971;SDS011;2000;47.572;14.202;2023-07-22T09:20:08;2.37;;;2.13;;
3971;SDS011;2000;47.572;14.202;2023-07-22T09:22:35;5.67;;;2.90;;
3971;SDS011;2000;47.572;14.202;2023-07-22T09:27:45;4.50;;;2.50;;
3971;SDS011;2000;47.572;14.202;2023-07-22T09:30:22;2.63;;;2.17;;
3971;SDS011;2000;47.572;14.202;2023-07-22T09:32:51;2.87;;;2.67;;
3971;SDS011;2000;47.572;14.202;2023-07-22T09:35:23;3.33;;;3.00;;
3971;SDS011;2000;47.572;14.202;2023-07-22T09:37:52;4.40;;;2.60;;
3971;SDS011;2000;47.572;14.202;2023-07-22T09:40:22;10.30;;;3.30;;
3971;SDS011;2000;47.572;14.202;2023-07-22T09:42:53;3.90;;;2.33;;
3971;SDS011;2000;47.572;14.202;2023-07-22T09:45:23;3.53;;;2.40;;
3971;SDS011;2000;47.572;14.202;2023-07-22T09:47:51;4.30;;;3.23;;
3971;SDS011;2000;47.572;14.202;2023-07-22T09:50:20;4.90;;;2.57;;
3971;SDS011;2000;47.572;14.202;2023-07-22T09:55:16;4.47;;;2.40;;
3971;SDS011;2000;47.572;14.202;2023-07-22T09:57:45;3.13;;;2.70;;
3971;SDS011;2000;47.572;14.202;2023-07-22T10:00:14;4.93;;;2.83;;
3971;SDS011;2000;47.572;14.202;2023-07-22T10:02:42;7.47;;;2.97;;
3971;SDS011;2000;47.572;14.202;2023-07-22T10:05:11;3.00;;;2.70;;
3971;SDS011;2000;47.572;14.202;2023-07-22T10:07:42;5.63;;;2.90;;
3971;SDS011;2000;47.572;14.202;2023-07-22T10:10:22;5.37;;;2.83;;
3971;SDS011;2000;47.572;14.202;2023-07-22T10:12:50;5.53;;;2.93;;
3971;SDS011;2000;47.572;14.202;2023-07-22T10:15:17;3.07;;;2.77;;
3971;SDS011;2000;47.572;14.202;2023-07-22T10:17:44;11.33;;;2.60;;
3971;SDS011;2000;47.572;14.202;2023-07-22T10:20:12;12.33;;;3.70;;
3971;SDS011;2000;47.572;14.202;2023-07-22T10:22:42;4.50;;;3.00;;
3971;SDS011;2000;47.572;14.202;2023-07-22T10:25:17;5.30;;;3.13;;
3971;SDS011;2000;47.572;14.202;2023-07-22T10:27:46;3.83;;;3.13;;
3971;SDS011;2000;47.572;14.202;2023-07-22T10:30:15;3.63;;;2.93;;
3971;SDS011;2000;47.572;14.202;2023-07-22T10:32:51;3.93;;;2.70;;
3971;SDS011;2000;47.572;14.202;2023-07-22T10:35:22;3.67;;;2.93;;
3971;SDS011;2000;47.572;14.202;2023-07-22T10:38:14;2.63;;;2.10;;
3971;SDS011;2000;47.572;14.202;2023-07-22T10:40:52;3.00;;;2.70;;
3971;SDS011;2000;47.572;14.202;2023-07-22T10:43:32;2.70;;;2.43;;
3971;SDS011;2000;47.572;14.202;2023-07-22T10:46:10;4.13;;;2.83;;
3971;SDS011;2000;47.572;14.202;2023-07-22T10:48:39;4.10;;;2.53;;
3971;SDS011;2000;47.572;14.202;2023-07-22T10:51:12;4.83;;;3.03;;
3971;SDS011;2000;47.572;14.202;2023-07-22T10:53:45;4.57;;;3.07;;
3971;SDS011;2000;47.572;14.202;2023-07-22T10:56:18;4.13;;;3.00;;
3971;SDS011;2000;47.572;14.202;2023-07-22T11:06:29;3.50;;;2.90;;
3971;SDS011;2000;47.572;14.202;2023-07-22T11:08:56;4.67;;;2.70;;
3971;SDS011;2000;47.572;14.202;2023-07-22T11:14:17;3.30;;;2.60;;
3971;SDS011;2000;47.572;14.202;2023-07-22T11:16:47;4.70;;;2.87;;
3971;SDS011;2000;47.572;14.202;2023-07-22T11:19:15;2.70;;;2.43;;
3971;SDS011;2000;47.572;14.202;2023-07-22T11:21:43;3.20;;;2.67;;
3971;SDS011;2000;47.572;14.202;2023-07-22T11:24:10;5.03;;;2.60;;
3971;SDS011;2000;47.572;14.202;2023-07-22T11:26:38;4.17;;;2.63;;
3971;SDS011;2000;47.572;14.202;2023-07-22T11:29:06;3.10;;;2.80;;
3971;SDS011;2000;47.572;14.202;2023-07-22T11:31:35;3.53;;;3.23;;
3971;SDS011;2000;47.572;14.202;2023-07-22T11:34:12;4.40;;;2.67;;
3971;SDS011;2000;47.572;14.202;2023-07-22T11:36:41;3.03;;;2.47;;
3971;SDS011;2000;47.572;14.202;2023-07-22T11:39:09;4.17;;;2.37;;
3971;SDS011;2000;47.572;14.202;2023-07-22T11:41:41;6.13;;;2.80;;
3971;SDS011;2000;47.572;14.202;2023-07-22T11:44:09;3.90;;;3.13;;
3971;SDS011;2000;47.572;14.202;2023-07-22T11:49:29;8.07;;;2.90;;
3971;SDS011;2000;47.572;14.202;2023-07-22T11:51:57;3.80;;;2.70;;
3971;SDS011;2000;47.572;14.202;2023-07-22T11:54:26;5.50;;;3.43;;
3971;SDS011;2000;47.572;14.202;2023-07-22T11:56:54;8.60;;;3.47;;
3971;SDS011;2000;47.572;14.202;2023-07-22T11:59:33;3.77;;;2.90;;
3971;SDS011;2000;47.572;14.202;2023-07-22T12:02:00;5.17;;;3.57;;
3971;SDS011;2000;47.572;14.202;2023-07-22T12:04:30;5.77;;;3.00;;
3971;SDS011;2000;47.572;14.202;2023-07-22T12:06:57;4.97;;;3.20;;
3971;SDS011;2000;47.572;14.202;2023-07-22T12:09:23;4.60;;;3.00;;
3971;SDS011;2000;47.572;14.202;2023-07-22T12:11:58;4.93;;;3.10;;
3971;SDS011;2000;47.572;14.202;2023-07-22T12:14:34;5.40;;;3.07;;
3971;SDS011;2000;47.572;14.202;2023-07-22T12:17:02;3.80;;;3.07;;
3971;SDS011;2000;47.572;14.202;2023-07-22T12:19:29;6.73;;;2.50;;
3971;SDS011;2000;47.572;14.202;2023-07-22T12:21:58;3.40;;;2.60;;
3971;SDS011;2000;47.572;14.202;2023-07-22T12:24:26;4.40;;;3.53;;
3971;SDS011;2000;47.572;14.202;2023-07-22T12:26:53;6.80;;;3.70;;
3971;SDS011;2000;47.572;14.202;2023-07-22T12:29:20;3.57;;;2.93;;
3971;SDS011;2000;47.572;14.202;2023-07-22T12:31:48;5.27;;;3.30;;
3971;SDS011;2000;47.572;14.202;2023-07-22T12:34:15;4.90;;;3.80;;
3971;SDS011;2000;47.572;14.202;2023-07-22T12:36:42;8.13;;;3.20;;
3971;SDS011;2000;47.572;14.202;2023-07-22T12:39:08;3.80;;;2.93;;
3971;SDS011;2000;47.572;14.202;2023-07-22T12:41:37;8.70;;;4.17;;
3971;SDS011;2000;47.572;14.202;2023-07-22T12:44:04;9.10;;;3.07;;
3971;SDS011;2000;47.572;14.202;2023-07-22T12:46:31;8.20;;;4.10;;
3971;SDS011;2000;47.572;14.202;2023-07-22T12:48:58;4.30;;;2.80;;
3971;SDS011;2000;47.572;14.202;2023-07-22T12:51:26;10.90;;;3.70;;
3971;SDS011;2000;47.572;14.202;2023-07-22T12:53:54;7.63;;;3.77;;
3971;SDS011;2000;47.572;14.202;2023-07-22T12:56:21;6.23;;;3.23;;
3971;SDS011;2000;47.572;14.202;2023-07-22T12:58:48;3.87;;;2.80;;
3971;SDS011;2000;47.572;14.202;2023-07-22T13:01:14;4.97;;;3.10;;
3971;SDS011;2000;47.572;14.202;2023-07-22T13:03:41;5.20;;;3.37;;
3971;SDS011;2000;47.572;14.202;2023-07-22T13:06:08;3.10;;;2.50;;
3971;SDS011;2000;47.572;14.202;2023-07-22T13:08:35;3.87;;;3.00;;
3971;SDS011;2000;47.572;14.202;2023-07-22T13:11:02;4.13;;;3.33;;
3971;SDS011;2000;47.572;14.202;2023-07-22T13:13:30;6.60;;;4.00;;
3971;SDS011;2000;47.572;14.202;2023-07-22T13:15:56;6.23;;;4.10;;
3971;SDS011;2000;47.572;14.202;2023-07-22T13:18:23;4.47;;;3.87;;
3971;SDS011;2000;47.572;14.202;2023-07-22T13:20:50;4.90;;;4.40;;
3971;SDS011;2000;47.572;14.202;2023-07-22T13:23:17;7.17;;;3.80;;
3971;SDS011;2000;47.572;14.202;2023-07-22T13:25:44;5.40;;;3.50;;
3971;SDS011;2000;47.572;14.202;2023-07-22T13:28:11;4.10;;;3.60;;
3971;SDS011;2000;47.572;14.202;2023-07-22T13:30:38;7.77;;;3.90;;
3971;SDS011;2000;47.572;14.202;2023-07-22T13:33:04;7.20;;;3.57;;
3971;SDS011;2000;47.572;14.202;2023-07-22T13:35:31;8.33;;;3.93;;
3971;SDS011;2000;47.572;14.202;2023-07-22T13:37:58;6.13;;;3.90;;
3971;SDS011;2000;47.572;14.202;2023-07-22T13:40:25;6.67;;;4.10;;
3971;SDS011;2000;47.572;14.202;2023-07-22T13:42:52;5.20;;;4.10;;
3971;SDS011;2000;47.572;14.202;2023-07-22T13:45:18;8.20;;;3.80;;
3971;SDS011;2000;47.572;14.202;2023-07-22T13:47:45;9.53;;;4.00;;
3971;SDS011;2000;47.572;14.202;2023-07-22T13:50:12;5.23;;;3.70;;
3971;SDS011;2000;47.572;14.202;2023-07-22T13:52:39;4.00;;;3.17;;
3971;SDS011;2000;47.572;14.202;2023-07-22T13:55:07;8.80;;;3.87;;
3971;SDS011;2000;47.572;14.202;2023-07-22T13:57:34;4.53;;;2.70;;
3971;SDS011;2000;47.572;14.202;2023-07-22T14:00:01;6.30;;;4.20;;
3971;SDS011;2000;47.572;14.202;2023-07-22T14:02:34;5.97;;;4.03;;
3971;SDS011;2000;47.572;14.202;2023-07-22T14:05:01;5.70;;;3.67;;
3971;SDS011;2000;47.572;14.202;2023-07-22T14:07:29;7.60;;;3.67;;
3971;SDS011;2000;47.572;14.202;2023-07-22T14:09:56;5.83;;;3.93;;
3971;SDS011;2000;47.572;14.202;2023-07-22T14:12:23;7.03;;;3.90;;
3971;SDS011;2000;47.572;14.202;2023-07-22T14:14:49;4.87;;;3.90;;
3971;SDS011;2000;47.572;14.202;2023-07-22T14:17:16;7.70;;;4.00;;
3971;SDS011;2000;47.572;14.202;2023-07-22T14:19:43;4.60;;;3.60;;
3971;SDS011;2000;47.572;14.202;2023-07-22T14:22:10;9.27;;;4.07;;
3971;SDS011;2000;47.572;14.202;2023-07-22T14:24:36;4.27;;;3.60;;
3971;SDS011;2000;47.572;14.202;2023-07-22T14:27:03;8.03;;;5.00;;
3971;SDS011;2000;47.572;14.202;2023-07-22T14:29:30;8.40;;;4.90;;
3971;SDS011;2000;47.572;14.202;2023-07-22T14:31:57;8.53;;;4.30;;
3971;SDS011;2000;47.572;14.202;2023-07-22T14:34:24;6.50;;;4.20;;
3971;SDS011;2000;47.572;14.202;2023-07-22T14:36:51;4.67;;;3.97;;
3971;SDS011;2000;47.572;14.202;2023-07-22T14:39:17;7.63;;;4.90;;
3971;SDS011;2000;47.572;14.202;2023-07-22T14:41:44;5.00;;;3.90;;
3971;SDS011;2000;47.572;14.202;2023-07-22T14:44:11;5.63;;;4.10;;
3971;SDS011;2000;47.572;14.202;2023-07-22T14:46:38;5.00;;;3.63;;
3971;SDS011;2000;47.572;14.202;2023-07-22T14:49:05;7.67;;;5.10;;
3971;SDS011;2000;47.572;14.202;2023-07-22T14:51:36;7.77;;;4.37;;
3971;SDS011;2000;47.572;14.202;2023-07-22T14:54:03;7.00;;;4.70;;
3971;SDS011;2000;47.572;14.202;2023-07-22T14:56:30;6.83;;;4.13;;
3971;SDS011;2000;47.572;14.202;2023-07-22T14:58:57;7.03;;;4.20;;
3971;SDS011;2000;47.572;14.202;2023-07-22T15:01:23;9.03;;;5.03;;
3971;SDS011;2000;47.572;14.202;2023-07-22T15:03:51;6.37;;;4.00;;
3971;SDS011;2000;47.572;14.202;2023-07-22T15:06:18;6.30;;;4.47;;
3971;SDS011;2000;47.572;14.202;2023-07-22T15:08:45;8.17;;;4.37;;
3971;SDS011;2000;47.572;14.202;2023-07-22T15:11:11;11.00;;;4.40;;
3971;SDS011;2000;47.572;14.202;2023-07-22T15:13:38;5.37;;;3.70;;
3971;SDS011;2000;47.572;14.202;2023-07-22T15:16:05;5.90;;;4.40;;
3971;SDS011;2000;47.572;14.202;2023-07-22T15:18:32;11.17;;;3.67;;
3971;SDS011;2000;47.572;14.202;2023-07-22T15:20:59;8.60;;;3.90;;
3971;SDS011;2000;47.572;14.202;2023-07-22T15:23:26;7.13;;;4.20;;